createdAt,value
2023-02-04T00:00:14.304Z,0.68
2023-02-04T00:05:39.043Z,1.10
2023-02-04T00:10:43.539Z,0.80
2023-02-04T00:15:49.534Z,0.70
2023-02-04T00:20:54.281Z,1.45
2023-02-04T00:25:57.984Z,0.63
2023-02-04T00:31:03.883Z,0.80
2023-02-04T00:36:10.059Z,0.80
2023-02-04T00:41:13.510Z,1.40
2023-02-04T00:46:17.011Z,0.82
2023-02-04T00:51:22.171Z,1.58
2023-02-04T00:56:27.242Z,1.00
2023-02-04T01:01:31.165Z,1.15
2023-02-04T01:06:36.456Z,1.20
2023-02-04T01:11:40.527Z,1.52
2023-02-04T01:16:44.084Z,1.27
2023-02-04T01:21:49.336Z,1.10
2023-02-04T01:26:52.718Z,1.15
2023-02-04T01:31:57.142Z,1.20
2023-02-04T01:37:02.444Z,1.20
2023-02-04T01:42:06.227Z,1.50
2023-02-04T01:47:10.745Z,5.43
2023-02-04T01:52:15.549Z,9.35
2023-02-04T01:57:19.431Z,11.02
2023-02-04T02:02:40.782Z,10.77
2023-02-04T02:07:45.971Z,12.82
2023-02-04T02:12:50.325Z,10.82
2023-02-04T02:17:54.721Z,11.82
2023-02-04T02:23:05.305Z,9.90
2023-02-04T02:28:14.954Z,9.82
2023-02-04T02:33:20.764Z,10.65
2023-02-04T02:38:24.535Z,9.57
2023-02-04T02:43:30.643Z,8.38
2023-02-04T02:48:34.491Z,7.40
2023-02-04T02:53:37.983Z,6.68
2023-02-04T02:58:43.240Z,6.75
2023-02-04T03:03:50.476Z,7.22
2023-02-04T03:08:56.865Z,5.47
2023-02-04T03:14:02.669Z,5.25
2023-02-04T03:19:08.654Z,3.53
2023-02-04T03:24:12.164Z,3.72
2023-02-04T03:29:16.996Z,3.38
2023-02-04T03:34:20.384Z,3.10
2023-02-04T03:39:24.027Z,2.42
2023-02-04T03:44:28.748Z,2.53
2023-02-04T03:49:33.279Z,2.42
2023-02-04T03:54:36.991Z,2.42
2023-02-04T03:59:42.019Z,2.85
2023-02-04T04:04:45.485Z,2.78
2023-02-04T04:09:49.257Z,3.65
2023-02-04T04:14:54.073Z,3.53
2023-02-04T04:19:57.489Z,4.00
2023-02-04T04:25:01.125Z,4.65
2023-02-04T04:30:06.596Z,5.15
2023-02-04T04:35:10.484Z,3.20
2023-02-04T04:40:14.741Z,3.90
2023-02-04T04:45:19.861Z,4.57
2023-02-04T04:50:23.409Z,4.40
2023-02-04T04:55:26.876Z,4.45
2023-02-04T05:00:32.051Z,5.18
2023-02-04T05:05:39.947Z,4.97
2023-02-04T05:10:43.872Z,5.25
2023-02-04T05:15:48.620Z,5.03
2023-02-04T05:20:52.025Z,4.88
2023-02-04T05:25:55.783Z,5.28
2023-02-04T05:31:00.976Z,5.78
2023-02-04T05:36:04.693Z,5.30
2023-02-04T05:41:08.453Z,5.28
2023-02-04T05:46:13.350Z,4.93
2023-02-04T05:51:17.103Z,4.97
2023-02-04T05:56:20.518Z,5.57
2023-02-04T06:01:25.314Z,5.80
2023-02-04T06:06:28.762Z,5.47
2023-02-04T06:11:32.254Z,5.95
2023-02-04T06:16:37.508Z,5.88
2023-02-04T06:21:40.864Z,6.05
2023-02-04T06:26:44.624Z,5.97
2023-02-04T06:31:49.637Z,6.22
2023-02-04T06:36:53.335Z,5.95
2023-02-04T06:41:56.935Z,5.72
2023-02-04T06:47:01.674Z,6.03
2023-02-04T06:52:05.748Z,6.00
2023-02-04T06:57:09.472Z,5.35
2023-02-04T07:02:14.470Z,5.45
2023-02-04T07:07:17.895Z,5.55
2023-02-04T07:12:21.588Z,4.97
2023-02-04T07:17:26.419Z,4.70
2023-02-04T07:22:32.454Z,4.53
2023-02-04T07:27:36.171Z,4.57
2023-02-04T07:32:41.027Z,4.40
2023-02-04T07:37:44.498Z,3.80
2023-02-04T07:42:47.962Z,4.03
2023-02-04T07:47:52.702Z,3.80
2023-02-04T07:52:56.082Z,4.32
2023-02-04T07:57:59.495Z,4.30
2023-02-04T08:03:04.345Z,4.03
2023-02-04T08:08:08.048Z,3.47
2023-02-04T08:13:11.747Z,3.88
2023-02-04T08:18:16.520Z,3.38
2023-02-04T08:23:19.959Z,3.03
2023-02-04T08:28:23.571Z,3.40
2023-02-04T08:33:28.658Z,3.00
2023-02-04T08:38:32.041Z,3.55
2023-02-04T08:43:37.499Z,3.78
2023-02-04T08:48:42.286Z,3.42
2023-02-04T08:53:45.704Z,3.17
2023-02-04T08:58:52.842Z,3.20
2023-02-04T09:03:57.616Z,3.15
2023-02-04T09:09:02.324Z,2.80
2023-02-04T09:14:06.439Z,2.78
2023-02-04T09:19:12.839Z,2.65
2023-02-04T09:24:18.386Z,2.67
2023-02-04T09:29:21.802Z,2.90
2023-02-04T09:34:26.549Z,2.85
2023-02-04T09:39:30.161Z,2.60
2023-02-04T09:44:33.943Z,2.58
2023-02-04T09:49:38.882Z,2.90
2023-02-04T09:54:42.864Z,2.70
2023-02-04T09:59:47.132Z,2.10
2023-02-04T10:04:53.988Z,2.80
2023-02-04T10:09:58.073Z,2.85
2023-02-04T10:15:02.223Z,3.30
2023-02-04T10:20:15.018Z,3.40
2023-02-04T10:25:21.566Z,3.78
2023-02-04T10:30:27.431Z,3.50
2023-02-04T10:35:32.507Z,3.38
2023-02-04T10:40:37.309Z,3.40
2023-02-04T10:45:41.135Z,3.40
2023-02-04T10:50:47.420Z,3.08
2023-02-04T10:55:51.469Z,2.95
2023-02-04T11:00:55.517Z,3.17
2023-02-04T11:06:01.991Z,2.75
2023-02-04T11:11:08.021Z,2.35
2023-02-04T11:16:14.747Z,2.80
2023-02-04T11:21:27.057Z,3.15
2023-02-04T11:26:35.681Z,2.63
2023-02-04T11:31:58.259Z,2.90
2023-02-04T11:37:17.440Z,1.98
2023-02-04T11:42:25.895Z,2.20
2023-02-04T11:47:38.756Z,1.77
2023-02-04T11:52:43.564Z,2.17
2023-02-04T11:57:52.253Z,2.28
2023-02-04T12:03:00.484Z,1.70
2023-02-04T12:08:13.906Z,1.70
2023-02-04T12:18:21.578Z,1.60
2023-02-04T12:23:27.036Z,1.98
2023-02-04T12:28:30.782Z,1.75
2023-02-04T12:33:34.235Z,1.52
2023-02-04T12:38:38.996Z,1.85
2023-02-04T12:43:42.334Z,2.28
2023-02-04T12:48:46.164Z,2.45
2023-02-04T12:53:51.226Z,1.98
2023-02-04T12:58:54.616Z,1.77
2023-02-04T13:03:58.258Z,2.22
2023-02-04T13:09:03.244Z,2.28
2023-02-04T13:14:06.755Z,2.50
2023-02-04T13:19:10.105Z,2.42
2023-02-04T13:24:14.850Z,2.58
2023-02-04T13:29:18.524Z,2.42
2023-02-04T13:34:23.049Z,1.42
2023-02-04T13:39:27.991Z,2.72
2023-02-04T13:44:31.421Z,1.70
2023-02-04T13:49:35.603Z,1.85
2023-02-04T13:54:40.323Z,1.50
2023-02-04T13:59:44.088Z,2.08
2023-02-04T14:04:47.682Z,1.33
2023-02-04T14:09:52.459Z,1.77
2023-02-04T14:14:55.854Z,1.33
2023-02-04T14:19:59.263Z,1.50
2023-02-04T14:25:04.176Z,1.52
2023-02-04T14:30:10.442Z,2.40
2023-02-04T14:35:14.521Z,2.08
2023-02-04T14:40:21.191Z,2.22
2023-02-04T14:45:25.737Z,2.40
2023-02-04T14:50:30.731Z,2.13
2023-02-04T14:55:35.604Z,2.78
2023-02-04T15:00:39.105Z,3.35
2023-02-04T15:05:42.491Z,3.05
2023-02-04T15:10:47.212Z,4.28
2023-02-04T15:15:50.803Z,8.82
2023-02-04T15:20:54.280Z,15.93
2023-02-04T15:25:59.016Z,8.98
2023-02-04T15:31:05.191Z,4.00
2023-02-04T15:36:09.660Z,4.38
2023-02-04T15:41:14.610Z,4.65
2023-02-04T15:46:18.045Z,3.53
2023-02-04T15:51:22.080Z,3.58
2023-02-04T15:56:26.984Z,3.05
2023-02-04T16:01:30.730Z,2.90
2023-02-04T16:06:34.111Z,2.88
2023-02-04T16:11:40.259Z,3.05
2023-02-04T16:16:43.596Z,2.30
2023-02-04T16:21:47.154Z,1.80
2023-02-04T16:26:52.992Z,1.92
2023-02-04T16:31:58.016Z,2.83
2023-02-04T16:37:01.659Z,2.15
2023-02-04T16:42:08.945Z,2.28
2023-02-04T16:47:12.941Z,2.05
2023-02-04T16:52:16.422Z,2.45
2023-02-04T16:57:21.806Z,2.28
2023-02-04T17:02:26.210Z,2.28
2023-02-04T17:07:30.632Z,2.80
2023-02-04T17:12:35.933Z,2.42
2023-02-04T17:17:40.789Z,2.88
2023-02-04T17:22:45.214Z,2.17
2023-02-04T17:27:51.570Z,2.65
2023-02-04T17:32:55.353Z,2.03
2023-02-04T17:38:01.412Z,2.20
2023-02-04T17:43:07.547Z,2.55
2023-02-04T17:48:11.286Z,2.13
2023-02-04T17:53:15.914Z,2.53
2023-02-04T17:58:23.913Z,3.35
2023-02-04T18:03:29.636Z,3.80
2023-02-04T18:08:41.054Z,2.55
2023-02-04T18:13:48.468Z,3.33
2023-02-04T18:18:54.892Z,2.60
2023-02-04T18:24:08.034Z,3.78
2023-02-04T18:29:31.680Z,3.25
2023-02-04T18:34:38.833Z,3.15
2023-02-04T18:39:42.598Z,2.97
2023-02-04T18:44:49.018Z,2.72
2023-02-04T18:49:52.823Z,3.50
2023-02-04T18:54:59.016Z,3.35
2023-02-04T19:00:27.933Z,3.78
2023-02-04T19:05:49.858Z,3.95
2023-02-04T19:10:56.361Z,2.85
2023-02-04T19:16:12.038Z,3.03
2023-02-04T19:21:25.340Z,3.30
2023-02-04T19:26:34.624Z,3.75
2023-02-04T19:31:39.833Z,3.17
2023-02-04T19:36:44.131Z,3.60
2023-02-04T19:41:50.173Z,2.72
2023-02-04T19:46:55.094Z,2.95
2023-02-04T19:51:59.893Z,2.55
2023-02-04T19:57:03.656Z,1.88
2023-02-04T20:02:29.273Z,2.90
2023-02-04T20:07:39.415Z,2.55
2023-02-04T20:12:42.946Z,3.00
2023-02-04T20:17:49.901Z,3.28
2023-02-04T20:22:55.907Z,3.67
2023-02-04T20:28:04.135Z,3.50
2023-02-04T20:33:25.223Z,3.38
2023-02-04T20:38:29.357Z,3.13
2023-02-04T20:43:36.214Z,3.30
2023-02-04T20:48:41.740Z,4.15
2023-02-04T20:53:49.524Z,3.78
2023-02-04T20:58:55.706Z,4.03
2023-02-04T21:04:02.361Z,3.67
2023-02-04T21:09:10.399Z,3.85
2023-02-04T21:14:15.112Z,4.10
2023-02-04T21:19:20.212Z,4.32
2023-02-04T21:24:23.779Z,3.47
2023-02-04T21:29:27.534Z,4.20
2023-02-04T21:34:32.445Z,4.18
2023-02-04T21:39:36.173Z,4.53
2023-02-04T21:44:40.747Z,3.67
2023-02-04T21:49:46.144Z,4.05
2023-02-04T21:54:51.235Z,3.15
2023-02-04T21:59:54.707Z,4.53
2023-02-04T22:04:59.458Z,3.10
2023-02-04T22:10:03.425Z,3.67
2023-02-04T22:15:07.593Z,3.58
2023-02-04T22:20:15.174Z,4.97
2023-02-04T22:25:20.685Z,4.10
2023-02-04T22:30:24.131Z,3.78
2023-02-04T22:35:29.895Z,3.95
2023-02-04T22:40:33.322Z,3.97
2023-02-04T22:45:36.980Z,3.40
2023-02-04T22:50:41.703Z,3.70
2023-02-04T22:55:45.060Z,4.90
2023-02-04T23:00:49.269Z,3.72
2023-02-04T23:05:54.442Z,3.72
2023-02-04T23:10:57.816Z,4.53
2023-02-04T23:16:01.298Z,4.45
2023-02-04T23:21:07.161Z,5.90
2023-02-04T23:26:10.942Z,4.38
2023-02-04T23:31:14.421Z,4.18
2023-02-04T23:36:19.456Z,4.85
2023-02-04T23:41:23.433Z,4.38
2023-02-04T23:46:26.822Z,3.70
2023-02-04T23:51:31.892Z,5.55
2023-02-04T23:56:35.942Z,4.07
